Time;durP1;ratioP1;P1;durP2;ratioP2;P2;SDS_P1;SDS_P2;PMS_P1;PMS_P2;Temp;Humidity;BMP_temperature;BMP_pressure;BME280_temperature;BME280_humidity;BME280_pressure;Samples;Min_cycle;Max_cycle;Signal;HPM_P1;HPM_P2
2024/01/21 00:01:53;;;;;;;7.75;4.50;;;;;;;0.16;74.06;102495.84;7400629;19;20343;-73
2024/01/21 00:04:22;;;;;;;8.65;4.80;;;;;;;0.17;73.59;102484.31;7400703;19;19914;-73
2024/01/21 00:06:54;;;;;;;7.97;4.43;;;;;;;0.15;73.47;102474.72;7400712;19;19922;-73
2024/01/21 00:09:24;;;;;;;8.15;4.78;;;;;;;0.14;74.56;102470.34;7399778;19;20014;-73
2024/01/21 00:11:53;;;;;;;7.00;4.40;;;;;;;0.10;74.67;102466.09;7399123;19;20300;-73
2024/01/21 00:14:22;;;;;;;9.07;4.05;;;;;;;0.06;74.91;102469.84;7399732;19;19929;-73
2024/01/21 00:16:52;;;;;;;8.38;4.80;;;;;;;0.03;74.93;102467.34;7400134;19;19930;-72
2024/01/21 00:19:21;;;;;;;9.85;5.38;;;;;;;0.01;75.45;102464.75;7398980;19;19914;-73
2024/01/21 00:21:53;;;;;;;9.43;4.60;;;;;;;-0.03;76.01;102465.81;7399843;19;19915;-72
2024/01/21 00:24:23;;;;;;;7.63;4.28;;;;;;;-0.05;76.38;102449.16;7398864;19;19934;-72
2024/01/21 00:26:52;;;;;;;11.65;5.35;;;;;;;-0.08;77.21;102452.78;7399543;19;20255;-72
2024/01/21 00:29:21;;;;;;;10.43;4.63;;;;;;;-0.13;77.20;102432.75;7398520;19;19922;-71
2024/01/21 00:31:51;;;;;;;10.75;5.78;;;;;;;-0.16;77.64;102428.44;7398875;19;19922;-71
2024/01/21 00:34:20;;;;;;;9.30;5.55;;;;;;;-0.17;76.99;102432.00;7399731;19;19919;-71
2024/01/21 00:36:49;;;;;;;10.07;5.40;;;;;;;-0.18;76.86;102434.75;7402447;19;19926;-72
2024/01/21 00:39:21;;;;;;;9.25;5.30;;;;;;;-0.18;76.00;102425.03;7404859;19;19915;-72
2024/01/21 00:41:51;;;;;;;13.75;5.95;;;;;;;-0.17;76.37;102420.56;7405548;19;19914;-72
2024/01/21 00:44:20;;;;;;;8.40;5.80;;;;;;;-0.17;76.79;102410.81;7404969;19;19933;-72
2024/01/21 00:46:50;;;;;;;9.05;4.97;;;;;;;-0.17;76.12;102408.16;7404837;19;20261;-72
2024/01/21 00:49:20;;;;;;;8.13;4.30;;;;;;;-0.14;76.37;102389.50;7405311;19;20706;-74
2024/01/21 00:51:49;;;;;;;8.40;4.82;;;;;;;-0.11;75.80;102396.44;7404510;19;19925;-72
2024/01/21 00:54:21;;;;;;;8.27;4.50;;;;;;;-0.07;74.84;102403.31;7404791;19;19918;-73
2024/01/21 00:56:50;;;;;;;8.75;4.40;;;;;;;-0.03;74.47;102396.94;7404807;19;19930;-72
2024/01/21 00:59:20;;;;;;;6.80;4.53;;;;;;;-0.01;73.53;102390.66;7405172;19;19922;-73
2024/01/21 01:01:49;;;;;;;6.43;3.58;;;;;;;0.01;73.02;102395.88;7404501;19;20279;-73
2024/01/21 01:04:19;;;;;;;8.35;3.80;;;;;;;0.02;72.79;102392.28;7405122;19;19930;-73
2024/01/21 01:06:48;;;;;;;8.40;4.45;;;;;;;0.05;73.04;102393.94;7403762;19;19929;-72
2024/01/21 01:09:17;;;;;;;6.88;3.63;;;;;;;0.03;72.57;102383.41;7405699;19;19919;-73
2024/01/21 01:11:49;;;;;;;6.60;3.72;;;;;;;0.05;72.23;102372.72;7405287;19;19929;-73
2024/01/21 01:14:19;;;;;;;6.72;3.50;;;;;;;0.05;71.68;102380.69;7405022;19;20390;-73
2024/01/21 01:16:48;;;;;;;5.85;4.13;;;;;;;0.07;71.83;102369.09;7404791;19;19922;-72
2024/01/21 01:19:17;;;;;;;7.80;4.05;;;;;;;0.06;69.98;102377.97;7404154;19;19922;-73
2024/01/21 01:21:47;;;;;;;5.55;3.65;;;;;;;0.09;70.76;102369.03;7405340;19;19917;-73
2024/01/21 01:24:16;;;;;;;6.15;3.25;;;;;;;0.10;71.06;102365.44;7404676;19;20229;-73
2024/01/21 01:26:48;;;;;;;7.85;3.97;;;;;;;0.09;72.42;102374.34;7404467;19;19925;-72
2024/01/21 01:29:18;;;;;;;7.68;3.45;;;;;;;0.08;73.29;102372.59;7404014;19;20275;-73
2024/01/21 01:31:47;;;;;;;8.45;3.70;;;;;;;0.03;72.05;102356.94;7405075;19;19922;-73
2024/01/21 01:34:16;;;;;;;7.60;4.55;;;;;;;0.03;71.90;102367.53;7403573;19;19926;-73
2024/01/21 01:36:46;;;;;;;6.50;3.08;;;;;;;0.04;72.23;102365.75;7404643;19;19923;-73
2024/01/21 01:39:15;;;;;;;6.47;3.58;;;;;;;0.03;71.39;102356.06;7403446;19;19929;-73
2024/01/21 01:41:44;;;;;;;5.75;3.40;;;;;;;0.03;70.96;102353.41;7404521;19;19923;-73
2024/01/21 01:44:16;;;;;;;5.97;3.50;;;;;;;0.05;71.55;102348.88;7404826;19;19937;-73
2024/01/21 01:46:46;;;;;;;5.75;3.67;;;;;;;0.05;71.51;102336.50;7403491;19;20371;-72
2024/01/21 01:49:15;;;;;;;7.00;3.20;;;;;;;0.05;71.09;102333.00;7403618;19;20264;-73
2024/01/21 01:51:45;;;;;;;5.80;3.30;;;;;;;0.07;71.36;102337.31;7402905;19;19922;-73
2024/01/21 01:54:15;;;;;;;6.22;3.10;;;;;;;0.08;71.01;102324.91;7404023;19;19922;-73
2024/01/21 01:56:44;;;;;;;6.55;3.67;;;;;;;0.08;70.37;102316.97;7403801;19;19922;-73
2024/01/21 01:59:18;;;;;;;6.15;3.55;;;;;;;0.10;69.93;102310.66;7403935;19;19922;-73
2024/01/21 02:01:48;;;;;;;6.72;3.47;;;;;;;0.12;69.68;102303.50;7403138;19;19926;-73
2024/01/21 02:04:17;;;;;;;4.80;2.63;;;;;;;0.13;68.00;102301.72;7403493;19;19922;-73
2024/01/21 02:06:47;;;;;;;5.85;3.03;;;;;;;0.17;68.08;102298.84;7403647;19;19933;-73
2024/01/21 02:09:16;;;;;;;4.57;3.10;;;;;;;0.18;67.55;102289.94;7403317;19;19915;-73
2024/01/21 02:11:46;;;;;;;7.05;3.50;;;;;;;0.19;68.19;102283.72;7403673;19;19925;-73
2024/01/21 02:14:18;;;;;;;5.63;3.00;;;;;;;0.22;67.71;102261.47;7403601;19;19922;-73
2024/01/21 02:16:47;;;;;;;;;;;;;;;0.19;64.62;102251.91;7403831;19;19929;-73
2024/01/21 02:19:27;;;;;;;4.40;2.42;;;;;;;0.23;65.26;102242.88;7402750;19;19914;-73
2024/01/21 02:21:57;;;;;;;5.75;3.08;;;;;;;0.25;66.93;102226.91;7403798;19;19987;-73
2024/01/21 02:24:33;;;;;;;6.88;2.60;;;;;;;0.25;66.43;102222.47;7402294;19;19926;-73
2024/01/21 02:27:03;;;;;;;4.93;2.60;;;;;;;0.26;67.85;102218.03;7400024;19;20615;-72
2024/01/21 02:29:32;;;;;;;5.38;2.67;;;;;;;0.25;66.91;102224.25;7403339;19;19929;-73
2024/01/21 02:32:02;;;;;;;6.38;2.53;;;;;;;0.24;67.25;102215.44;7402076;19;19918;-73
2024/01/21 02:34:31;;;;;;;4.03;2.83;;;;;;;0.25;67.65;102213.66;7402791;19;19942;-73
2024/01/21 02:37:00;;;;;;;4.88;2.50;;;;;;;0.23;67.50;102207.56;7402354;19;19938;-73
2024/01/21 02:39:32;;;;;;;6.13;2.70;;;;;;;0.21;67.02;102207.66;7402515;19;19922;-73
2024/01/21 02:42:02;;;;;;;6.15;2.53;;;;;;;0.21;66.50;102205.00;7402236;19;19914;-73
2024/01/21 02:44:31;;;;;;;3.45;2.25;;;;;;;0.20;66.49;102192.69;7402362;19;20263;-73
2024/01/21 02:47:01;;;;;;;4.65;2.13;;;;;;;0.22;66.28;102198.75;7402285;19;19918;-73
2024/01/21 02:49:31;;;;;;;6.28;3.13;;;;;;;0.21;65.92;102190.91;7402354;19;20343;-73
2024/01/21 02:52:01;;;;;;;4.93;2.72;;;;;;;0.21;65.95;102183.81;7403163;19;19922;-73
2024/01/21 02:54:33;;;;;;;3.55;2.33;;;;;;;0.22;65.23;102172.25;7403262;19;20000;-73
2024/01/21 02:57:02;;;;;;;4.88;2.50;;;;;;;0.26;65.64;102167.69;7402175;19;19915;-73
2024/01/21 02:59:31;;;;;;;4.93;2.90;;;;;;;0.27;64.94;102166.72;7399854;19;19930;-73
2024/01/21 03:02:01;;;;;;;5.78;2.45;;;;;;;0.29;64.79;102164.84;7402052;19;20268;-73
2024/01/21 03:04:30;;;;;;;5.35;2.30;;;;;;;0.32;64.27;102167.34;7401545;19;19928;-73
2024/01/21 03:07:00;;;;;;;4.38;2.22;;;;;;;0.33;64.05;102156.66;7403028;19;20383;-73
2024/01/21 03:09:29;;;;;;;5.28;2.55;;;;;;;0.35;63.31;102149.47;7401517;19;19930;-73
2024/01/21 03:12:02;;;;;;;4.97;2.30;;;;;;;0.37;63.04;102144.09;7402519;19;19930;-73
2024/01/21 03:14:31;;;;;;;5.50;2.40;;;;;;;0.40;61.96;102135.97;7401513;19;19933;-73
2024/01/21 03:17:00;;;;;;;5.03;2.40;;;;;;;0.43;62.30;102130.53;7401979;19;19930;-73
2024/01/21 03:19:30;;;;;;;3.72;1.90;;;;;;;0.46;63.17;102138.31;7401959;19;19919;-73
2024/01/21 03:22:00;;;;;;;5.38;2.20;;;;;;;0.47;62.72;102134.75;7402231;19;19918;-73
2024/01/21 03:24:29;;;;;;;4.63;2.13;;;;;;;0.52;61.67;102139.81;7402367;19;19922;-73
2024/01/21 03:27:01;;;;;;;3.33;1.85;;;;;;;0.56;62.27;102138.69;7401787;19;19922;-72
2024/01/21 03:29:31;;;;;;;3.80;2.05;;;;;;;0.58;60.40;102139.44;7402585;19;19931;-73
2024/01/21 03:32:00;;;;;;;3.38;1.85;;;;;;;0.60;61.39;102125.19;7401424;19;19949;-73
2024/01/21 03:34:29;;;;;;;4.82;2.35;;;;;;;0.61;61.40;102113.63;7401637;19;19978;-73
2024/01/21 03:36:59;;;;;;;2.28;1.90;;;;;;;0.62;61.70;102115.34;7401111;19;19933;-73
2024/01/21 03:39:28;;;;;;;3.70;2.08;;;;;;;0.65;60.34;102106.38;7401968;19;19930;-73
2024/01/21 03:41:58;;;;;;;4.30;2.08;;;;;;;0.62;61.27;102095.91;7402256;19;20359;-73
2024/01/21 03:44:30;;;;;;;2.92;1.75;;;;;;;0.59;61.14;102077.53;7401528;19;19919;-72
2024/01/21 03:47:00;;;;;;;3.92;1.88;;;;;;;0.57;61.77;102074.09;7400284;19;19922;-72
2024/01/21 03:49:29;;;;;;;3.20;1.60;;;;;;;0.55;62.06;102068.03;7401328;19;19941;-72
2024/01/21 03:51:59;;;;;;;3.83;1.80;;;;;;;0.53;63.00;102073.41;7401027;19;19918;-72
2024/01/21 03:54:28;;;;;;;5.50;2.72;;;;;;;0.51;63.04;102042.63;7400174;19;19915;-72
2024/01/21 03:56:58;;;;;;;4.90;1.60;;;;;;;0.47;62.40;102037.47;7401482;19;19922;-73
2024/01/21 03:59:30;;;;;;;4.05;2.08;;;;;;;0.46;62.31;102037.59;7400568;19;19926;-73
2024/01/21 04:01:59;;;;;;;2.70;1.98;;;;;;;0.45;63.36;102027.91;7401382;19;19934;-73
2024/01/21 04:04:29;;;;;;;2.95;1.70;;;;;;;0.43;63.35;102019.22;7399866;19;20706;-73
2024/01/21 04:06:58;;;;;;;3.40;1.95;;;;;;;0.40;63.61;102016.72;7401346;19;19918;-73
2024/01/21 04:09:28;;;;;;;2.97;1.90;;;;;;;0.40;63.02;102006.97;7399632;19;19933;-73
2024/01/21 04:11:57;;;;;;;1.90;1.45;;;;;;;0.40;62.58;102006.97;7406093;19;19929;-73
2024/01/21 04:14:26;;;;;;;4.00;1.38;;;;;;;0.43;59.85;102001.47;7405140;19;19922;-73
2024/01/21 04:16:58;;;;;;;2.88;1.35;;;;;;;0.47;59.71;101989.78;7405752;19;19918;-73
2024/01/21 04:19:28;;;;;;;2.38;1.20;;;;;;;0.52;59.97;101983.38;7405562;19;19918;-72
2024/01/21 04:21:57;;;;;;;2.03;1.20;;;;;;;0.54;59.48;101977.03;7406116;19;19922;-72
2024/01/21 04:24:27;;;;;;;3.42;1.23;;;;;;;0.55;60.63;101984.06;7406123;19;19919;-72
2024/01/21 04:26:56;;;;;;;2.42;1.48;;;;;;;0.55;60.25;101978.75;7405288;19;19930;-72
2024/01/21 04:29:25;;;;;;;2.15;1.30;;;;;;;0.55;61.12;101978.75;7405467;19;19918;-72
2024/01/21 04:31:55;;;;;;;2.78;1.33;;;;;;;0.55;61.62;101972.59;7404965;19;19922;-72
2024/01/21 04:34:27;;;;;;;1.98;1.10;;;;;;;0.51;61.01;101963.97;7404502;19;19929;-73
2024/01/21 04:36:56;;;;;;;2.85;1.42;;;;;;;0.53;61.51;101961.22;7405032;19;19941;-73
2024/01/21 04:39:25;;;;;;;1.92;1.10;;;;;;;0.56;60.69;101955.75;7405241;19;19962;-72
2024/01/21 04:41:55;;;;;;;1.33;0.80;;;;;;;0.58;60.69;101938.81;7404331;19;19950;-72
2024/01/21 04:44:24;;;;;;;1.88;0.82;;;;;;;0.61;59.61;101941.28;7405336;19;19914;-73
2024/01/21 04:46:54;;;;;;;2.45;1.00;;;;;;;0.64;60.06;101942.91;7404961;19;19921;-72
2024/01/21 04:49:23;;;;;;;2.63;1.25;;;;;;;0.69;59.39;101949.66;7405746;19;19925;-72
2024/01/21 04:51:55;;;;;;;2.30;0.75;;;;;;;0.72;57.92;101938.88;7405368;19;20402;-72
2024/01/21 04:54:24;;;;;;;2.22;1.10;;;;;;;0.77;58.26;101934.19;7404989;19;20354;-73
2024/01/21 04:56:54;;;;;;;1.90;1.05;;;;;;;0.85;58.03;101937.25;7405629;19;19922;-72
2024/01/21 04:59:23;;;;;;;1.80;0.75;;;;;;;0.91;56.57;101936.00;7403936;19;20270;-72
2024/01/21 05:01:53;;;;;;;1.00;0.80;;;;;;;0.99;55.95;101940.88;7405889;19;19918;-72
2024/01/21 05:04:22;;;;;;;1.10;0.70;;;;;;;1.04;55.67;101921.09;7405015;19;19926;-72
2024/01/21 05:06:51;;;;;;;1.73;0.70;;;;;;;1.08;55.15;101912.00;7404930;19;19918;-73
2024/01/21 05:09:23;;;;;;;2.00;1.15;;;;;;;1.11;55.53;101903.88;7403296;19;19922;-74
2024/01/21 05:11:53;;;;;;;1.75;0.75;;;;;;;1.11;56.85;101890.59;7405133;19;19918;-72
2024/01/21 05:14:22;;;;;;;1.58;1.00;;;;;;;1.12;56.37;101886.16;7404092;19;19922;-72
2024/01/21 05:16:52;;;;;;;1.42;0.85;;;;;;;1.12;54.52;101897.59;7404772;19;19922;-72
2024/01/21 05:19:21;;;;;;;2.65;0.80;;;;;;;1.14;54.61;101894.88;7403658;19;20332;-72
2024/01/21 05:21:50;;;;;;;3.13;1.33;;;;;;;1.18;54.19;101899.91;7403494;19;19926;-72
2024/01/21 05:24:23;;;;;;;1.35;0.93;;;;;;;1.17;54.18;101882.25;7404734;19;19915;-73
2024/01/21 05:26:52;;;;;;;;;;;;;;;1.14;51.60;101884.25;7407013;19;20884;-72
2024/01/21 05:29:22;;;;;;;1.35;0.98;;;;;;;1.15;53.74;101868.25;7404989;19;20272;-72
2024/01/21 05:31:51;;;;;;;2.00;1.02;;;;;;;1.18;53.72;101880.47;7403668;19;19918;-72
2024/01/21 05:34:20;;;;;;;1.85;0.82;;;;;;;1.19;55.18;101867.13;7405124;19;19921;-72
2024/01/21 05:36:50;;;;;;;1.30;0.82;;;;;;;1.18;53.86;101862.75;7403529;19;19940;-73
2024/01/21 05:39:19;;;;;;;1.85;1.17;;;;;;;1.18;54.10;101864.53;7404021;19;19923;-72
2024/01/21 05:42:08;;;;;;;1.25;0.77;;;;;;;1.17;52.99;101838.94;7403576;19;19934;-72
2024/01/21 05:44:38;;;;;;;2.35;1.00;;;;;;;1.19;53.88;101842.38;7405139;19;19926;-72
2024/01/21 05:47:07;;;;;;;1.20;0.90;;;;;;;1.18;53.88;101836.22;7404280;19;19923;-73
2024/01/21 05:49:37;;;;;;;2.58;1.20;;;;;;;1.18;54.22;101824.72;7403230;19;19915;-72
2024/01/21 05:52:06;;;;;;;1.25;0.82;;;;;;;1.13;53.93;101806.44;7404282;19;20336;-73
2024/01/21 05:54:36;;;;;;;1.05;0.85;;;;;;;1.13;54.00;101811.75;7403678;19;19967;-72
2024/01/21 05:57:08;;;;;;;1.90;1.05;;;;;;;1.13;54.62;101805.59;7404165;19;19926;-72
2024/01/21 05:59:38;;;;;;;1.70;0.90;;;;;;;1.14;55.25;101807.28;7403207;19;19994;-72
2024/01/21 06:02:10;;;;;;;1.73;1.00;;;;;;;1.12;53.67;101788.81;7404101;19;19938;-73
2024/01/21 06:04:40;;;;;;;;;;;;;;;1.13;52.00;101782.56;7405358;19;20332;-71
2024/01/21 06:07:09;;;;;;;1.60;0.82;;;;;;;1.16;55.60;101776.22;7403028;19;19918;-73
2024/01/21 06:09:38;;;;;;;1.20;0.88;;;;;;;1.15;53.72;101783.31;7403220;19;19923;-72
2024/01/21 06:12:11;;;;;;;2.47;0.90;;;;;;;1.18;53.97;101785.78;7404017;19;19915;-72
2024/01/21 06:14:40;;;;;;;1.90;0.80;;;;;;;1.23;54.32;101782.84;7404118;19;19930;-72
2024/01/21 06:17:09;;;;;;;1.52;0.73;;;;;;;1.26;54.75;101778.19;7403968;19;20275;-73
2024/01/21 06:19:39;;;;;;;1.75;0.82;;;;;;;1.27;54.53;101766.63;7403533;19;19919;-72
2024/01/21 06:22:08;;;;;;;1.60;1.27;;;;;;;1.30;54.19;101757.63;7402569;19;19926;-71
2024/01/21 06:24:38;;;;;;;1.98;0.80;;;;;;;1.34;54.86;101772.41;7402429;19;20259;-72
2024/01/21 06:27:07;;;;;;;1.55;1.00;;;;;;;1.41;53.00;101794.13;7403535;19;19921;-71
2024/01/21 06:29:39;;;;;;;1.73;0.82;;;;;;;1.49;52.52;101774.13;7402656;19;19926;-72
2024/01/21 06:32:09;;;;;;;3.70;1.27;;;;;;;1.56;52.13;101743.56;7403668;19;19914;-71
2024/01/21 06:34:39;;;;;;;2.90;1.25;;;;;;;1.63;52.18;101734.25;7403334;19;19915;-71
2024/01/21 06:37:08;;;;;;;1.55;0.93;;;;;;;1.65;52.47;101753.59;7403188;19;19922;-72
2024/01/21 06:39:37;;;;;;;2.40;1.00;;;;;;;1.69;52.08;101757.75;7403008;19;20304;-72
2024/01/21 06:42:07;;;;;;;2.47;1.20;;;;;;;1.74;51.12;101749.50;7402532;19;19926;-71
2024/01/21 06:44:41;;;;;;;2.90;1.50;;;;;;;1.76;51.01;101766.19;7403686;19;19922;-72
2024/01/21 06:47:11;;;;;;;1.95;0.90;;;;;;;1.79;50.79;101769.50;7403737;19;19921;-71
2024/01/21 06:49:40;;;;;;;1.83;1.10;;;;;;;1.82;51.49;101745.38;7401959;19;19982;-72
2024/01/21 06:52:10;;;;;;;2.13;1.20;;;;;;;1.83;52.04;101738.28;7403023;19;19922;-71
2024/01/21 06:54:40;;;;;;;1.98;1.17;;;;;;;1.85;51.87;101767.41;7401858;19;19919;-71
2024/01/21 06:57:09;;;;;;;3.17;1.15;;;;;;;1.83;51.38;101794.91;7403331;19;19925;-72
2024/01/21 06:59:41;;;;;;;2.05;1.23;;;;;;;1.82;51.73;101782.56;7401956;19;19927;-72
2024/01/21 07:02:11;;;;;;;2.85;1.27;;;;;;;1.80;51.63;101763.25;7403652;19;20275;-72
2024/01/21 07:04:41;;;;;;;2.30;1.30;;;;;;;1.80;52.31;101757.06;7401346;19;19922;-72
2024/01/21 07:07:10;;;;;;;2.38;1.35;;;;;;;1.80;52.73;101723.41;7403977;19;19921;-71
2024/01/21 07:09:42;;;;;;;2.00;1.02;;;;;;;1.80;51.76;101683.56;7401952;19;19926;-71
2024/01/21 07:12:12;;;;;;;2.25;1.27;;;;;;;1.81;52.44;101709.13;7403113;19;19933;-71
2024/01/21 07:14:43;;;;;;;3.90;1.80;;;;;;;1.84;52.02;101777.19;7402009;19;20272;-72
2024/01/21 07:17:13;;;;;;;3.25;1.48;;;;;;;1.86;52.04;101726.59;7402242;19;20263;-72
2024/01/21 07:19:42;;;;;;;3.90;1.80;;;;;;;1.88;51.88;101708.75;7403076;19;19925;-72
2024/01/21 07:22:13;;;;;;;4.10;2.05;;;;;;;1.88;52.28;101719.38;7402242;19;19922;-72
2024/01/21 07:24:42;;;;;;;2.70;1.50;;;;;;;1.88;52.12;101722.88;7403046;19;19918;-72
2024/01/21 07:27:12;;;;;;;4.60;1.70;;;;;;;1.87;52.63;101699.06;7400945;19;19918;-72
2024/01/21 07:29:44;;;;;;;3.08;1.88;;;;;;;1.89;50.79;101723.75;7401394;19;19915;-71
2024/01/21 07:32:14;;;;;;;3.75;1.75;;;;;;;1.90;52.09;101710.34;7401338;19;19922;-72
2024/01/21 07:34:44;;;;;;;2.65;1.48;;;;;;;1.90;52.69;101731.59;7401835;19;19927;-72
2024/01/21 07:37:14;;;;;;;5.38;1.92;;;;;;;1.91;52.55;101753.69;7400503;19;19922;-72
2024/01/21 07:39:45;;;;;;;3.22;1.70;;;;;;;1.94;52.39;101753.53;7401547;19;19923;-72
2024/01/21 07:42:14;;;;;;;3.22;2.00;;;;;;;1.96;52.30;101731.22;7402154;19;19922;-72
2024/01/21 07:44:46;;;;;;;4.38;2.45;;;;;;;1.96;52.47;101731.22;7399883;19;20328;-72
2024/01/21 07:47:15;;;;;;;4.68;2.60;;;;;;;1.96;53.06;101743.63;7401329;19;19910;-72
2024/01/21 07:49:46;;;;;;;4.35;1.98;;;;;;;1.94;52.86;101726.97;7399840;19;19941;-72
2024/01/21 07:52:16;;;;;;;4.20;2.10;;;;;;;1.90;53.44;101720.16;7400946;19;20589;-72
2024/01/21 07:54:46;;;;;;;6.68;2.33;;;;;;;1.86;53.60;101698.22;7400264;19;19942;-72
2024/01/21 07:57:15;;;;;;;6.60;2.72;;;;;;;1.87;53.83;101720.31;7400223;19;19926;-72
2024/01/21 07:59:47;;;;;;;5.78;2.50;;;;;;;1.86;54.17;101721.25;7399833;19;19929;-72
2024/01/21 08:02:17;;;;;;;4.07;2.50;;;;;;;1.82;53.91;101724.13;7400838;19;19919;-72
2024/01/21 08:04:46;;;;;;;7.00;3.05;;;;;;;1.80;54.15;101699.50;7400228;19;19930;-72
2024/01/21 08:07:16;;;;;;;4.90;2.53;;;;;;;1.79;54.30;101691.63;7400528;19;19919;-72
2024/01/21 08:09:45;;;;;;;5.53;2.58;;;;;;;1.78;54.99;101692.56;7399647;19;19915;-73
2024/01/21 08:12:15;;;;;;;3.42;2.50;;;;;;;1.76;55.03;101698.00;7400899;19;20461;-72
2024/01/21 08:14:47;;;;;;;4.20;2.47;;;;;;;1.74;54.92;101718.47;7399222;19;19907;-72
2024/01/21 08:17:17;;;;;;;4.78;2.90;;;;;;;1.74;55.79;101721.13;7399968;19;19922;-72
2024/01/21 08:19:46;;;;;;;4.90;2.50;;;;;;;1.74;55.33;101715.81;7400079;19;19923;-72
2024/01/21 08:22:16;;;;;;;4.25;2.55;;;;;;;1.72;55.84;101741.66;7399496;19;19930;-72
2024/01/21 08:24:45;;;;;;;4.55;2.88;;;;;;;1.72;55.81;101736.31;7400585;19;19915;-72
2024/01/21 08:27:15;;;;;;;6.35;2.97;;;;;;;1.71;55.72;101753.22;7399468;19;19918;-72
2024/01/21 08:29:47;;;;;;;6.45;2.88;;;;;;;1.71;56.40;101761.19;7399957;19;19918;-72
2024/01/21 08:32:16;;;;;;;4.80;2.65;;;;;;;1.70;56.89;101764.78;7399865;19;19914;-72
2024/01/21 08:34:46;;;;;;;5.32;3.53;;;;;;;1.70;56.93;101763.91;7398854;19;19918;-72
2024/01/21 08:37:15;;;;;;;4.97;2.85;;;;;;;1.69;57.17;101748.94;7399233;19;19933;-71
2024/01/21 08:39:44;;;;;;;4.90;3.17;;;;;;;1.67;57.61;101770.28;7398899;19;20347;-71
2024/01/21 08:42:14;;;;;;;6.47;2.67;;;;;;;1.70;57.64;101795.78;7399567;19;19930;-71
2024/01/21 08:44:43;;;;;;;4.78;2.63;;;;;;;1.71;57.88;101802.81;7399424;19;19941;-72
2024/01/21 08:47:15;;;;;;;5.40;2.97;;;;;;;1.73;57.62;101782.31;7399078;19;19925;-72
2024/01/21 08:49:45;;;;;;;6.70;3.30;;;;;;;1.73;57.66;101783.16;7398123;19;19919;-71
2024/01/21 08:52:14;;;;;;;6.13;3.30;;;;;;;1.74;57.88;101790.19;7398561;19;19938;-72
2024/01/21 08:54:43;;;;;;;7.40;3.40;;;;;;;1.74;58.10;101766.28;7397566;19;19922;-72
2024/01/21 08:57:13;;;;;;;5.50;3.08;;;;;;;1.73;58.38;101772.53;7400313;19;19922;-72
2024/01/21 08:59:43;;;;;;;6.15;2.80;;;;;;;1.70;58.23;101761.25;7404571;19;19922;-72
2024/01/21 09:02:15;;;;;;;8.32;3.40;;;;;;;1.72;58.16;101754.06;7405939;19;19922;-72
2024/01/21 09:04:45;;;;;;;7.95;3.30;;;;;;;1.72;58.53;101733.69;7403733;19;19923;-72
2024/01/21 09:07:14;;;;;;;6.95;3.67;;;;;;;1.73;58.58;101734.50;7405175;19;19915;-71
2024/01/21 09:09:44;;;;;;;6.85;4.53;;;;;;;1.74;58.66;101738.88;7405099;19;19926;-72
2024/01/21 09:12:14;;;;;;;5.43;3.15;;;;;;;1.78;58.43;101735.91;7405818;19;20395;-72
2024/01/21 09:14:44;;;;;;;5.07;3.28;;;;;;;1.79;58.98;101737.63;7404979;19;19918;-72
2024/01/21 09:17:16;;;;;;;5.68;3.55;;;;;;;1.81;59.27;101740.19;7404023;19;19919;-72
2024/01/21 09:19:46;;;;;;;4.82;2.97;;;;;;;1.85;59.09;101730.22;7404853;19;19925;-72
2024/01/21 09:22:15;;;;;;;5.53;3.40;;;;;;;1.85;59.12;101727.56;7404597;19;19930;-72
2024/01/21 09:24:44;;;;;;;6.90;3.35;;;;;;;1.90;59.13;101747.53;7405749;19;19915;-71
2024/01/21 09:27:14;;;;;;;7.03;3.38;;;;;;;1.93;59.32;101751.81;7403114;19;19926;-71
2024/01/21 09:29:44;;;;;;;6.38;3.35;;;;;;;1.94;59.91;101761.50;7404501;19;19922;-72
2024/01/21 09:32:17;;;;;;;6.15;3.35;;;;;;;1.93;59.90;101752.66;7403634;19;19918;-71
2024/01/21 09:34:46;;;;;;;6.43;4.07;;;;;;;1.95;59.56;101766.69;7405073;19;19926;-72
2024/01/21 09:37:15;;;;;;;5.93;3.22;;;;;;;1.99;59.51;101757.56;7404013;19;19923;-71
2024/01/21 09:39:45;;;;;;;6.45;3.33;;;;;;;2.03;59.81;101763.56;7403529;19;19922;-71
2024/01/21 09:42:17;;;;;;;6.95;3.55;;;;;;;2.05;59.98;101766.94;7404091;19;19918;-71
2024/01/21 09:44:46;;;;;;;5.70;3.38;;;;;;;2.08;60.57;101746.34;7404255;19;20585;-71
2024/01/21 09:47:19;;;;;;;4.50;3.05;;;;;;;2.10;60.78;101773.69;7403629;19;19925;-72
2024/01/21 09:49:50;;;;;;;6.85;3.55;;;;;;;2.12;61.48;101752.28;7403700;19;19915;-71
2024/01/21 09:52:21;;;;;;;7.78;3.90;;;;;;;2.14;61.27;101758.38;7403982;19;20335;-72
2024/01/21 09:54:50;;;;;;;6.05;3.15;;;;;;;2.21;61.63;101763.19;7402884;19;20390;-71
2024/01/21 09:57:19;;;;;;;5.57;3.40;;;;;;;2.28;61.86;101758.31;7403646;19;19911;-71
2024/01/21 09:59:50;;;;;;;5.25;2.83;;;;;;;2.31;62.00;101750.13;7402756;19;19914;-71
2024/01/21 10:02:23;;;;;;;7.22;3.47;;;;;;;2.32;62.34;101738.56;7402917;19;19918;-72
2024/01/21 10:04:54;;;;;;;6.68;3.25;;;;;;;2.32;62.47;101733.25;7402938;19;19930;-71
2024/01/21 10:07:24;;;;;;;6.07;3.30;;;;;;;2.31;62.70;101766.09;7403710;19;19922;-72
2024/01/21 10:09:57;;;;;;;8.77;4.30;;;;;;;2.27;63.30;101768.09;7402878;19;19924;-72
2024/01/21 10:12:27;;;;;;;6.38;3.60;;;;;;;2.25;63.24;101753.19;7403355;19;19929;-72
2024/01/21 10:14:56;;;;;;;7.78;3.90;;;;;;;2.24;63.29;101746.19;7403857;19;19922;-72
2024/01/21 10:17:28;;;;;;;5.68;3.20;;;;;;;2.23;63.24;101747.13;7402226;19;19921;-71
2024/01/21 10:20:00;;;;;;;5.60;3.70;;;;;;;2.25;63.45;101775.31;7403325;19;19914;-71
2024/01/21 10:22:29;;;;;;;6.80;3.70;;;;;;;2.27;63.77;101751.28;7402967;19;19914;-72
2024/01/21 10:25:01;;;;;;;7.38;4.10;;;;;;;2.35;63.70;101750.78;7403504;19;19918;-71
2024/01/21 10:27:31;;;;;;;6.28;3.28;;;;;;;2.37;63.93;101748.88;7402356;19;19923;-71
2024/01/21 10:30:00;;;;;;;6.35;3.45;;;;;;;2.39;64.08;101737.19;7403577;19;19919;-71
2024/01/21 10:32:32;;;;;;;6.22;3.67;;;;;;;2.43;64.89;101728.03;7402679;19;19927;-72
2024/01/21 10:35:01;;;;;;;6.28;3.22;;;;;;;2.47;65.20;101745.47;7402132;19;19929;-72
2024/01/21 10:37:33;;;;;;;10.30;3.55;;;;;;;2.48;65.21;101739.22;7402294;19;19910;-71
2024/01/21 10:40:04;;;;;;;4.85;2.83;;;;;;;2.47;65.42;101729.53;7401955;19;19926;-72
2024/01/21 10:42:36;;;;;;;6.53;3.40;;;;;;;2.47;65.04;101742.81;7403636;19;19930;-71
2024/01/21 10:45:06;;;;;;;6.35;4.30;;;;;;;2.45;65.51;101722.63;7402824;19;19922;-72
2024/01/21 10:47:41;;;;;;;5.47;3.20;;;;;;;2.46;66.11;101724.34;7402177;19;20259;-71
2024/01/21 10:50:13;;;;;;;6.53;3.20;;;;;;;2.50;65.99;101725.81;7402618;19;20267;-72
2024/01/21 10:52:46;;;;;;;6.13;3.28;;;;;;;2.59;66.25;101720.69;7402839;19;19918;-72
2024/01/21 10:55:15;;;;;;;6.90;3.85;;;;;;;2.67;66.40;101723.72;7402616;19;19919;-71
2024/01/21 10:57:47;;;;;;;6.32;4.20;;;;;;;2.73;66.96;101711.78;7402262;19;19934;-72
2024/01/21 11:00:17;;;;;;;6.25;3.50;;;;;;;2.76;66.97;101724.03;7401717;19;19930;-71
2024/01/21 11:03:16;;;;;;;5.95;3.55;;;;;;;2.74;66.83;101725.00;7401893;19;19919;-71
2024/01/21 11:05:48;;;;;;;10.73;4.18;;;;;;;2.76;66.69;101722.22;7402350;19;20209;-71
2024/01/21 11:08:18;;;;;;;6.72;4.13;;;;;;;2.76;67.21;101726.69;7402545;19;19922;-72
2024/01/21 11:10:48;;;;;;;6.60;3.58;;;;;;;2.73;68.10;101725.94;7401236;19;19937;-71
2024/01/21 11:13:42;;;;;;;4.35;2.92;;;;;;;2.70;69.73;101728.81;7401889;19;20372;-72
2024/01/21 11:16:35;;;;;;;9.88;3.97;;;;;;;2.73;71.57;101722.41;7402037;19;19934;-71
2024/01/21 11:19:07;;;;;;;7.07;3.88;;;;;;;2.73;73.90;101735.72;7400697;19;20332;-71
2024/01/21 11:21:43;;;;;;;6.65;3.85;;;;;;;2.72;75.34;101736.66;7400594;19;19918;-71
2024/01/21 11:24:15;;;;;;;5.63;3.42;;;;;;;2.70;75.89;101726.16;7401500;19;20054;-71
2024/01/21 11:26:47;;;;;;;7.43;3.95;;;;;;;2.75;76.22;101725.84;7401862;19;19922;-71
2024/01/21 11:29:25;;;;;;;6.38;3.20;;;;;;;2.77;76.73;101718.59;7401389;19;20256;-72
2024/01/21 11:31:54;;;;;;;5.97;3.42;;;;;;;2.79;75.87;101718.50;7401929;19;20224;-71
2024/01/21 11:34:24;;;;;;;7.20;4.15;;;;;;;2.78;75.91;101706.13;7401418;19;19923;-71
2024/01/21 11:36:57;;;;;;;8.77;4.05;;;;;;;2.77;75.79;101728.38;7400211;19;19922;-72
2024/01/21 11:39:26;;;;;;;4.93;3.40;;;;;;;2.74;76.38;101732.97;7400467;19;19926;-72
2024/01/21 11:41:56;;;;;;;7.68;3.53;;;;;;;2.78;76.00;101714.97;7400473;19;19923;-71
2024/01/21 11:44:27;;;;;;;9.25;4.22;;;;;;;2.80;76.19;101707.75;7400680;19;19938;-72
2024/01/21 11:46:59;;;;;;;6.85;2.85;;;;;;;2.80;76.50;101720.22;7399131;19;20271;-71
2024/01/21 11:49:32;;;;;;;6.57;3.75;;;;;;;2.80;76.52;101691.78;7400295;19;19906;-72